aviador You're here:

BKPR Decoded Metar

PRISHTINA in SERBIA
Report Time2018-01-18 21:30:00
UTC Time2018-01-18 21:42:47
Flight Rules vfr VFR
Wind330° at 05 kt
W.Decomp.*RWY 35: 4.6 kt HW 1.9 kt LCW
W.Rank330° ranks 6
Current wind is below 330° avg. (6.9)
Visibility9999 m
Phenomena:N/A
Clouds:N/A
Expected CloudBase > 2,800 ft AGL from Temp-Dew spread
CeilingNone
Temp-1°C (ISA -12)
Dew Point-8°C (59% RH)
AAT-5.7°C
QNH1014 hPa
Density Alt417 ft
Elevation1,890 ft
Report Wrong Elevation
Raw Report
BKPR 182130Z 33005KT 240V010 CAVOK M01/M08 Q1014 NOSIG RMK
17290095=

Extra information for BKPR:More info

Metar Taf Metar & Taf Last 4 Metars F.Rules Stats Wind Profile Meteogram Temp Stats Airport Information Weather charts Add Link Nearby VenuesMetar ALERT Operation Metar Decoded Social comments